メインページ
METAR-TAF:

METAR-TAF

空港 :

ドゥシャンベ, タジキスタン

ドゥシャンベ空港

緯度: 38-33N, 経度: 068-47E, 海抜: 803m

現時点の気象観測

当レポートは16分前の01:00(UTC)に作成
の風 2kt
気温 22°C
湿度 53%
気圧 1011 hPa
視程10km以上
高度6600ftの雲はほとんどない, 積乱雲.

METAR: UTDD 230100Z 01001MPS 9999 FEW066CB 22/12 Q1011 R09/D NOSIG RMK QFE690/0920

時間: 06:16 (01:16 UTC)

予報

当レポートは1時間16分前の00:00(UTC)に作成
予報は23日の 01時(UTC)から 23日の 13時(UTC)まで有効
変向風 4kt
視程: 6000m
高度6000ftの雲は散在している, 積乱雲.
高度10000ftの千切れ雲あり
23日の 03時(UTC)から 23日の 13時(UTC)まで一時的に
変向風 17kt、最大27ktの突風を伴う
視程: 1500m
激しい雷雨, 雨, 煙霧

TAF: UTDD 230000Z 2301/2313 VRB02MPS 6000 SCT060CB BKN100 TEMPO 2303/2313 VRB09G14MPS 1500 TSRA HZ

4,000以上の空港の気象観測と天気予報(METAR報とTAF報)

利用可能な観測所は地図上に黄色い丸と赤い丸で示す。

丸の上にカーソルを重ねると観測所名を参照できる。

次にクリックすると気象観測と天気予報を参照できる。

マップの切り替え:黒色「×」印の緑ボタンをクリックして拡大、「-」印の緑ボタンをクリックして縮小、緑色の三角印をクリックして隣りの地図に切り替え


METAR-TAF: